createdAt,value
2018-12-15T00:01:18.888Z,-0.30
2018-12-15T00:03:46.420Z,-0.30
2018-12-15T00:06:13.877Z,-0.40
2018-12-15T00:08:41.332Z,-0.30
2018-12-15T00:11:08.893Z,-0.30
2018-12-15T00:13:37.574Z,-0.30
2018-12-15T00:16:05.333Z,-0.30
2018-12-15T00:18:32.887Z,-0.40
2018-12-15T00:21:00.353Z,-0.40
2018-12-15T00:23:27.806Z,-0.30
2018-12-15T00:25:55.281Z,-0.30
2018-12-15T00:28:22.724Z,-0.30
2018-12-15T00:30:50.180Z,-0.30
2018-12-15T00:33:17.646Z,-0.40
2018-12-15T00:35:45.093Z,-0.30
2018-12-15T00:38:12.578Z,-0.30
2018-12-15T00:40:40.017Z,-0.30
2018-12-15T00:43:07.461Z,-0.30
2018-12-15T00:45:35.021Z,-0.30
2018-12-15T00:48:02.488Z,-0.30
2018-12-15T00:50:29.920Z,-0.30
2018-12-15T00:52:57.386Z,-0.30
2018-12-15T00:55:24.847Z,-0.30
2018-12-15T00:57:52.286Z,-0.30
2018-12-15T01:00:19.866Z,-0.30
2018-12-15T01:02:47.413Z,-0.30
2018-12-15T01:05:14.897Z,-0.30
2018-12-15T01:07:42.334Z,-0.40
2018-12-15T01:10:09.899Z,-0.30
2018-12-15T01:12:37.336Z,-0.30
2018-12-15T01:15:05.113Z,-0.30
2018-12-15T01:17:32.556Z,-0.30
2018-12-15T01:20:00.015Z,-0.40
2018-12-15T01:22:27.486Z,-0.40
2018-12-15T01:24:54.940Z,-0.40
2018-12-15T01:27:22.492Z,-0.40
2018-12-15T01:29:49.948Z,-0.40
2018-12-15T01:32:17.424Z,-0.40
2018-12-15T01:34:44.953Z,-0.30
2018-12-15T01:37:12.422Z,-0.30
2018-12-15T01:39:39.881Z,-0.30
2018-12-15T01:42:07.444Z,-0.30
2018-12-15T01:44:34.897Z,-0.40
2018-12-15T01:47:02.365Z,-0.40
2018-12-15T01:49:29.918Z,-0.40
2018-12-15T01:51:57.475Z,-0.30
2018-12-15T01:54:24.918Z,-0.40
2018-12-15T01:56:52.480Z,-0.30
2018-12-15T01:59:19.920Z,-0.30
2018-12-15T02:01:47.393Z,-0.30
2018-12-15T02:04:14.846Z,-0.30
2018-12-15T02:06:42.308Z,-0.30
2018-12-15T02:09:09.775Z,-0.30
2018-12-15T02:11:37.329Z,-0.30
2018-12-15T02:14:04.842Z,-0.20
2018-12-15T02:16:33.260Z,-0.20
2018-12-15T02:19:00.786Z,-0.30
2018-12-15T02:21:28.240Z,-0.30
2018-12-15T02:23:55.681Z,-0.30
2018-12-15T02:26:23.153Z,-0.30
2018-12-15T02:28:50.598Z,-0.30
2018-12-15T02:31:18.171Z,-0.30
2018-12-15T02:33:45.627Z,-0.30
2018-12-15T02:36:13.084Z,-0.40
2018-12-15T02:38:40.642Z,-0.40
2018-12-15T02:41:08.099Z,-0.40
2018-12-15T02:43:35.556Z,-0.40
2018-12-15T02:46:03.108Z,-0.40
2018-12-15T02:48:30.668Z,-0.40
2018-12-15T02:50:58.145Z,-0.40
2018-12-15T02:53:25.682Z,-0.40
2018-12-15T02:55:53.146Z,-0.40
2018-12-15T02:58:20.616Z,-0.30
2018-12-15T03:00:48.158Z,-0.40
2018-12-15T03:03:15.612Z,-0.40
2018-12-15T03:05:43.099Z,-0.40
2018-12-15T03:08:10.583Z,-0.40
2018-12-15T03:10:38.035Z,-0.40
2018-12-15T03:13:05.543Z,-0.40
2018-12-15T03:15:32.998Z,-0.40
2018-12-15T03:18:00.457Z,-0.40
2018-12-15T03:20:28.004Z,-0.40
2018-12-15T03:22:55.576Z,-0.40
2018-12-15T03:25:23.036Z,-0.40
2018-12-15T03:27:50.489Z,-0.40
2018-12-15T03:30:17.951Z,-0.40
2018-12-15T03:32:45.501Z,-0.40
2018-12-15T03:35:12.963Z,-0.40
2018-12-15T03:37:40.409Z,-0.40
2018-12-15T03:40:07.888Z,-0.40
2018-12-15T03:42:35.425Z,-0.40
2018-12-15T03:45:03.300Z,-0.40
2018-12-15T03:47:31.570Z,-0.40
2018-12-15T03:49:59.047Z,-0.40
2018-12-15T03:52:26.594Z,-0.40
2018-12-15T03:54:54.101Z,-0.40
2018-12-15T03:57:21.518Z,-0.40
2018-12-15T03:59:49.048Z,-0.40
2018-12-15T04:02:16.520Z,-0.40
2018-12-15T04:04:44.111Z,-0.40
2018-12-15T04:07:11.638Z,-0.40
2018-12-15T04:09:39.195Z,-0.40
2018-12-15T04:12:06.749Z,-0.40
2018-12-15T04:14:34.191Z,-0.50
2018-12-15T04:17:01.660Z,-0.50
2018-12-15T04:19:29.097Z,-0.40
2018-12-15T04:22:04.255Z,-0.40
2018-12-15T04:24:31.815Z,-0.40
2018-12-15T04:26:59.264Z,-0.50
2018-12-15T04:29:26.706Z,-0.40
2018-12-15T04:31:54.143Z,-0.40
2018-12-15T04:34:21.646Z,-0.50
2018-12-15T04:36:49.196Z,-0.40
2018-12-15T04:39:16.664Z,-0.40
2018-12-15T04:41:44.092Z,-0.40
2018-12-15T04:44:11.531Z,-0.40
2018-12-15T04:46:39.016Z,-0.40
2018-12-15T04:49:06.478Z,-0.40
2018-12-15T04:51:33.917Z,-0.50
2018-12-15T04:54:01.358Z,-0.50
2018-12-15T04:56:28.851Z,-0.50
2018-12-15T04:58:56.296Z,-0.50
2018-12-15T05:01:23.798Z,-0.50
2018-12-15T05:03:51.321Z,-0.50
2018-12-15T05:06:18.781Z,-0.50
2018-12-15T05:08:46.436Z,-0.50
2018-12-15T05:11:13.920Z,-0.50
2018-12-15T05:13:41.546Z,-0.50
2018-12-15T05:16:09.004Z,-0.50
2018-12-15T05:18:36.454Z,-0.50
2018-12-15T05:21:04.029Z,-0.50
2018-12-15T05:23:31.692Z,-0.50
2018-12-15T05:25:59.136Z,-0.50
2018-12-15T05:28:26.605Z,-0.50
2018-12-15T05:30:54.061Z,-0.50
2018-12-15T05:33:21.616Z,-0.50
2018-12-15T05:35:49.078Z,-0.50
2018-12-15T05:38:16.528Z,-0.50
2018-12-15T05:40:43.980Z,-0.50
2018-12-15T05:43:11.442Z,-0.50
2018-12-15T05:45:38.886Z,-0.50
2018-12-15T05:48:06.324Z,-0.50
2018-12-15T05:50:33.786Z,-0.50
2018-12-15T05:53:01.266Z,-0.50
2018-12-15T05:55:28.826Z,-0.40
2018-12-15T05:57:56.265Z,-0.50
2018-12-15T06:00:23.743Z,-0.50
2018-12-15T06:02:51.302Z,-0.50
2018-12-15T06:05:18.980Z,-0.50
2018-12-15T06:07:46.640Z,-0.50
2018-12-15T06:10:14.148Z,-0.50
2018-12-15T06:12:41.593Z,-0.50
2018-12-15T06:15:09.193Z,-0.50
2018-12-15T06:17:36.797Z,-0.50
2018-12-15T06:20:05.293Z,-0.50
2018-12-15T06:22:32.993Z,-0.50
2018-12-15T06:25:01.511Z,-0.50
2018-12-15T06:27:29.037Z,-0.60
2018-12-15T06:29:56.488Z,-0.60
2018-12-15T06:32:23.954Z,-0.50
2018-12-15T06:34:52.913Z,-0.50
2018-12-15T06:37:20.337Z,-0.50
2018-12-15T06:39:47.777Z,-0.50
2018-12-15T06:42:15.308Z,-0.60
2018-12-15T06:44:42.869Z,-0.60
2018-12-15T06:47:10.429Z,-0.60
2018-12-15T06:49:38.101Z,-0.60
2018-12-15T06:52:05.537Z,-0.60
2018-12-15T06:54:33.007Z,-0.60
2018-12-15T06:57:00.564Z,-0.50
2018-12-15T06:59:28.117Z,-0.50
2018-12-15T07:01:55.577Z,-0.50
2018-12-15T07:04:23.029Z,-0.50
2018-12-15T07:06:50.484Z,-0.50
2018-12-15T07:09:18.049Z,-0.50
2018-12-15T07:11:45.606Z,-0.50
2018-12-15T07:14:13.170Z,-0.50
2018-12-15T07:16:40.621Z,-0.50
2018-12-15T07:19:08.197Z,-0.50
2018-12-15T07:21:35.731Z,-0.50
2018-12-15T07:24:03.221Z,-0.50
2018-12-15T07:26:30.749Z,-0.50
2018-12-15T07:28:58.198Z,-0.50
2018-12-15T07:31:25.640Z,-0.50
2018-12-15T07:33:53.085Z,-0.50
2018-12-15T07:36:20.577Z,-0.50
2018-12-15T07:38:48.167Z,-0.50
2018-12-15T07:41:15.601Z,-0.50
2018-12-15T07:43:43.163Z,-0.50
2018-12-15T07:46:10.692Z,-0.40
2018-12-15T07:48:38.168Z,-0.40
2018-12-15T07:51:06.977Z,-0.40
2018-12-15T07:53:35.547Z,-0.40
2018-12-15T07:56:03.465Z,-0.40
2018-12-15T07:58:31.064Z,-0.40
2018-12-15T08:00:58.508Z,-0.30
2018-12-15T08:03:25.981Z,-0.30
2018-12-15T08:05:53.442Z,-0.30
2018-12-15T08:08:21.028Z,-0.30
2018-12-15T08:10:54.889Z,-0.30
2018-12-15T08:13:23.780Z,-0.30
2018-12-15T08:15:51.246Z,-0.30
2018-12-15T08:18:18.754Z,-0.20
2018-12-15T08:20:46.185Z,-0.20
2018-12-15T08:23:13.633Z,-0.10
2018-12-15T08:25:41.115Z,-0.10
2018-12-15T08:28:08.581Z,-0.10
2018-12-15T08:30:36.033Z,-0.10
2018-12-15T08:33:09.941Z,-0.10
2018-12-15T08:35:37.602Z,-0.10
2018-12-15T08:38:05.404Z,0.00
2018-12-15T08:40:33.064Z,0.00
2018-12-15T08:43:00.505Z,0.00
2018-12-15T08:45:28.038Z,0.00
2018-12-15T08:47:55.573Z,0.00
2018-12-15T08:50:23.033Z,0.10
2018-12-15T08:52:50.485Z,0.20
2018-12-15T08:55:17.948Z,0.20
2018-12-15T08:57:45.406Z,0.10
2018-12-15T09:00:12.844Z,0.20
2018-12-15T09:02:40.276Z,0.20
2018-12-15T09:05:07.869Z,0.20
2018-12-15T09:07:35.429Z,0.20
2018-12-15T09:10:03.567Z,0.20
2018-12-15T09:12:31.044Z,0.30
2018-12-15T09:15:02.266Z,0.30
2018-12-15T09:17:31.881Z,0.30
2018-12-15T09:20:00.781Z,0.30
2018-12-15T09:22:35.847Z,0.40
2018-12-15T09:25:04.092Z,0.40
2018-12-15T09:27:31.683Z,0.40
2018-12-15T09:30:00.617Z,0.40
2018-12-15T09:32:28.736Z,0.50
2018-12-15T09:34:56.168Z,0.50
2018-12-15T09:37:23.657Z,0.50
2018-12-15T09:39:51.108Z,0.60
2018-12-15T09:42:18.661Z,0.50
2018-12-15T09:44:46.129Z,0.50
2018-12-15T09:47:13.573Z,0.50
2018-12-15T09:49:41.354Z,0.50
2018-12-15T09:52:08.823Z,0.50
2018-12-15T09:54:36.353Z,0.50
2018-12-15T09:57:04.493Z,0.60
2018-12-15T09:59:32.293Z,0.60
2018-12-15T10:01:59.747Z,0.60
2018-12-15T10:04:27.196Z,0.50
2018-12-15T10:06:54.662Z,0.50
2018-12-15T10:09:22.206Z,0.50
2018-12-15T10:11:49.641Z,0.60
2018-12-15T10:14:17.125Z,0.60
2018-12-15T10:16:44.570Z,0.60
2018-12-15T10:19:12.007Z,0.60
2018-12-15T10:21:39.448Z,0.60
2018-12-15T10:24:06.962Z,0.50
2018-12-15T10:26:34.411Z,0.40
2018-12-15T10:29:01.964Z,0.50
2018-12-15T10:31:35.423Z,0.50
2018-12-15T10:34:02.974Z,0.50
2018-12-15T10:36:30.483Z,0.50
2018-12-15T10:38:57.937Z,0.50
2018-12-15T10:41:25.405Z,0.40
2018-12-15T10:43:52.834Z,0.50
2018-12-15T10:46:20.318Z,0.40
2018-12-15T10:48:47.769Z,0.40
2018-12-15T10:51:15.261Z,0.30
2018-12-15T10:53:42.724Z,0.20
2018-12-15T10:56:10.164Z,0.10
2018-12-15T10:58:37.836Z,0.00
2018-12-15T11:01:09.145Z,0.10
2018-12-15T11:03:36.594Z,0.10
2018-12-15T11:06:04.083Z,0.00
2018-12-15T11:08:31.621Z,0.00
2018-12-15T11:10:59.072Z,0.10
2018-12-15T11:13:26.549Z,0.10
2018-12-15T11:15:53.985Z,0.10
2018-12-15T11:18:21.449Z,0.10
2018-12-15T11:20:48.901Z,0.10
2018-12-15T11:23:16.357Z,0.10
2018-12-15T11:25:43.811Z,0.20
2018-12-15T11:28:11.254Z,0.20
2018-12-15T11:30:38.734Z,0.30
2018-12-15T11:33:06.281Z,0.30
2018-12-15T11:35:34.605Z,0.40
2018-12-15T11:38:02.045Z,0.40
2018-12-15T11:40:29.477Z,0.50
2018-12-15T11:42:56.940Z,0.40
2018-12-15T11:45:24.373Z,0.50
2018-12-15T11:47:51.940Z,0.50
2018-12-15T11:50:19.407Z,0.50
2018-12-15T11:52:46.850Z,0.50
2018-12-15T11:55:14.408Z,0.40
2018-12-15T11:57:41.841Z,0.40
2018-12-15T12:00:09.369Z,0.50
2018-12-15T12:02:36.809Z,0.50
2018-12-15T12:05:05.670Z,0.60
2018-12-15T12:07:33.129Z,0.60
2018-12-15T12:10:00.689Z,0.50
2018-12-15T12:12:28.138Z,0.40
2018-12-15T12:14:55.613Z,0.40
2018-12-15T12:17:23.064Z,0.30
2018-12-15T12:19:50.615Z,0.20
2018-12-15T12:22:18.208Z,0.20
2018-12-15T12:24:45.742Z,0.20
2018-12-15T12:27:13.198Z,0.30
2018-12-15T12:29:40.640Z,0.30
2018-12-15T12:32:08.116Z,0.30
2018-12-15T12:34:35.564Z,0.40
2018-12-15T12:37:03.039Z,0.30
2018-12-15T12:39:30.579Z,0.30
2018-12-15T12:41:58.004Z,0.30
2018-12-15T12:44:25.563Z,0.30
2018-12-15T12:46:53.079Z,0.40
2018-12-15T12:49:20.601Z,0.30
2018-12-15T12:51:48.056Z,0.30
2018-12-15T12:54:15.496Z,0.30
2018-12-15T12:56:42.970Z,0.30
2018-12-15T12:59:10.534Z,0.30
2018-12-15T13:01:38.093Z,0.30
2018-12-15T13:04:05.649Z,0.30
2018-12-15T13:06:33.113Z,0.30
2018-12-15T13:09:00.629Z,0.30
2018-12-15T13:11:28.120Z,0.20
2018-12-15T13:13:55.578Z,0.20
2018-12-15T13:16:23.137Z,0.20
2018-12-15T13:18:50.597Z,0.20
2018-12-15T13:21:18.064Z,0.30
2018-12-15T13:23:45.733Z,0.30
2018-12-15T13:26:13.269Z,0.30
2018-12-15T13:28:40.835Z,0.40
2018-12-15T13:31:08.316Z,0.50
2018-12-15T13:33:35.843Z,0.40
2018-12-15T13:36:07.188Z,0.40
2018-12-15T13:38:34.629Z,0.40
2018-12-15T13:41:02.079Z,0.70
2018-12-15T13:43:29.715Z,0.20
2018-12-15T13:45:57.349Z,0.20
2018-12-15T13:48:24.825Z,0.20
2018-12-15T13:50:52.282Z,0.20
2018-12-15T13:53:19.797Z,0.20
2018-12-15T13:55:47.256Z,0.20
2018-12-15T13:58:14.806Z,0.20
2018-12-15T14:00:42.371Z,0.10
2018-12-15T14:03:09.810Z,0.10
2018-12-15T14:05:37.390Z,0.10
2018-12-15T14:08:04.945Z,0.10
2018-12-15T14:10:32.390Z,0.10
2018-12-15T14:12:59.837Z,0.20
2018-12-15T14:15:27.308Z,0.10
2018-12-15T14:17:54.752Z,0.10
2018-12-15T14:20:22.321Z,0.10
2018-12-15T14:22:49.789Z,0.00
2018-12-15T14:25:17.257Z,-0.10
2018-12-15T14:27:44.810Z,-0.10
2018-12-15T14:30:12.367Z,-0.10
2018-12-15T14:32:39.922Z,-0.10
2018-12-15T14:35:07.616Z,-0.20
2018-12-15T14:37:35.061Z,-0.20
2018-12-15T14:40:02.594Z,-0.20
2018-12-15T14:42:30.060Z,-0.20
2018-12-15T14:44:57.507Z,-0.20
2018-12-15T14:47:24.963Z,-0.20
2018-12-15T14:49:52.396Z,-0.20
2018-12-15T14:52:19.875Z,-0.20
2018-12-15T14:54:47.372Z,-0.20
2018-12-15T14:57:16.740Z,-0.20
2018-12-15T14:59:44.288Z,-0.10
2018-12-15T15:02:11.728Z,-0.20
2018-12-15T15:04:39.204Z,-0.20
2018-12-15T15:07:06.666Z,-0.30
2018-12-15T15:09:34.241Z,-0.20
2018-12-15T15:12:01.717Z,-0.20
2018-12-15T15:14:29.337Z,-0.30
2018-12-15T15:16:57.122Z,-0.30
2018-12-15T15:19:24.579Z,-0.30
2018-12-15T15:21:52.117Z,-0.30
2018-12-15T15:24:19.573Z,-0.30
2018-12-15T15:26:47.022Z,-0.30
2018-12-15T15:29:14.484Z,-0.30
2018-12-15T15:31:41.942Z,-0.30
2018-12-15T15:34:09.506Z,-0.30
2018-12-15T15:36:36.961Z,-0.30
2018-12-15T15:39:06.464Z,-0.30
2018-12-15T15:41:33.940Z,-0.30
2018-12-15T15:44:01.377Z,-0.30
2018-12-15T15:46:28.829Z,-0.30
2018-12-15T15:48:56.273Z,-0.30
2018-12-15T15:51:24.275Z,-0.30
2018-12-15T15:53:51.919Z,-0.30
2018-12-15T15:56:19.361Z,-0.30
2018-12-15T16:05:04.145Z,-0.40
2018-12-15T16:07:31.592Z,-0.40
2018-12-15T16:09:59.044Z,-0.40
2018-12-15T16:12:26.489Z,-0.40
2018-12-15T16:14:53.997Z,-0.40
2018-12-15T16:17:21.462Z,-0.40
2018-12-15T16:19:48.910Z,-0.50
2018-12-15T16:22:16.734Z,-0.50
2018-12-15T16:24:44.416Z,-0.50
2018-12-15T16:27:11.871Z,-0.50
2018-12-15T16:29:39.460Z,-0.50
2018-12-15T16:32:07.054Z,-0.50
2018-12-15T16:34:34.573Z,-0.50
2018-12-15T16:37:02.049Z,-0.50
2018-12-15T16:39:29.509Z,-0.40
2018-12-15T16:41:56.959Z,-0.50
2018-12-15T16:44:24.504Z,-0.40
2018-12-15T16:46:51.961Z,-0.50
2018-12-15T16:49:19.604Z,-0.50
2018-12-15T16:51:47.067Z,-0.50
2018-12-15T16:54:14.541Z,-0.50
2018-12-15T16:56:42.097Z,-0.50
2018-12-15T16:59:09.537Z,-0.60
2018-12-15T17:01:37.001Z,-0.60
2018-12-15T17:04:04.506Z,-0.60
2018-12-15T17:06:31.990Z,-0.60
2018-12-15T17:08:59.473Z,-0.60
2018-12-15T17:11:27.033Z,-0.50
2018-12-15T17:13:54.589Z,-0.50
2018-12-15T17:16:22.154Z,-0.60
2018-12-15T17:18:49.601Z,-0.50
2018-12-15T17:21:17.368Z,-0.50
2018-12-15T17:23:44.824Z,-0.50
2018-12-15T17:26:12.390Z,-0.60
2018-12-15T17:28:39.837Z,-0.60
2018-12-15T17:31:07.284Z,-0.50
2018-12-15T17:33:34.767Z,-0.60
2018-12-15T17:36:02.325Z,-0.60
2018-12-15T17:38:29.808Z,-0.60
2018-12-15T17:40:57.334Z,-0.60
2018-12-15T17:43:24.790Z,-0.60
2018-12-15T17:45:52.331Z,-0.50
2018-12-15T17:48:19.802Z,-0.60
2018-12-15T17:50:47.355Z,-0.60
2018-12-15T17:53:14.861Z,-0.60
2018-12-15T17:55:43.852Z,-0.60
2018-12-15T17:58:14.676Z,-0.60
2018-12-15T18:00:40.830Z,-0.60
2018-12-15T18:03:08.330Z,-0.60
2018-12-15T18:05:35.889Z,-0.60
2018-12-15T18:08:03.554Z,-0.60
2018-12-15T18:10:31.105Z,-0.60
2018-12-15T18:12:58.670Z,-0.60
2018-12-15T18:15:26.226Z,-0.70
2018-12-15T18:20:13.867Z,-0.70
2018-12-15T18:22:41.373Z,-0.70
2018-12-15T18:25:08.891Z,-0.70
2018-12-15T18:27:36.399Z,-0.70
2018-12-15T18:30:06.410Z,-0.70
2018-12-15T18:32:34.634Z,-0.70
2018-12-15T18:35:02.128Z,-0.70
2018-12-15T18:37:29.645Z,-0.70
2018-12-15T18:39:57.186Z,-0.70
2018-12-15T18:42:24.653Z,-0.70
2018-12-15T18:44:52.112Z,-0.70
2018-12-15T18:47:19.672Z,-0.70
2018-12-15T18:49:47.239Z,-0.70
2018-12-15T18:52:14.694Z,-0.70
2018-12-15T18:54:42.240Z,-0.70
2018-12-15T18:57:09.842Z,-0.80
2018-12-15T18:59:37.289Z,-0.70
2018-12-15T19:02:04.934Z,-0.80
2018-12-15T19:04:32.389Z,-0.80
2018-12-15T19:06:59.838Z,-0.80
2018-12-15T19:09:27.383Z,-0.80
2018-12-15T19:11:54.908Z,-0.80
2018-12-15T19:14:22.399Z,-0.80
2018-12-15T19:16:49.872Z,-0.80
2018-12-15T19:19:17.438Z,-0.80
2018-12-15T19:21:44.892Z,-0.80
2018-12-15T19:24:12.445Z,-0.80
2018-12-15T19:26:39.886Z,-0.80
2018-12-15T19:29:07.351Z,-0.80
2018-12-15T19:31:35.416Z,-0.80
2018-12-15T19:34:02.976Z,-0.80
2018-12-15T19:36:30.452Z,-0.80
2018-12-15T19:38:57.912Z,-0.80
2018-12-15T19:41:25.393Z,-0.80
2018-12-15T19:43:52.854Z,-0.80
2018-12-15T19:46:20.296Z,-0.80
2018-12-15T19:48:47.747Z,-0.80
2018-12-15T19:51:15.629Z,-0.80
2018-12-15T19:53:43.226Z,-0.80
2018-12-15T19:56:10.672Z,-0.80
2018-12-15T19:58:38.179Z,-0.90
2018-12-15T20:01:05.721Z,-0.90
2018-12-15T20:03:33.207Z,-0.90
2018-12-15T20:06:00.733Z,-0.90
2018-12-15T20:08:28.289Z,-0.90
2018-12-15T20:10:55.750Z,-0.90
2018-12-15T20:13:23.197Z,-1.00
2018-12-15T20:20:45.728Z,-0.80
2018-12-15T20:23:13.208Z,-0.90
2018-12-15T20:25:40.645Z,-0.90
2018-12-15T20:28:08.115Z,-0.90
2018-12-15T20:30:35.582Z,-1.00
2018-12-15T20:33:03.099Z,-1.00
2018-12-15T20:35:30.569Z,-1.00
2018-12-15T20:37:58.026Z,-0.90
2018-12-15T20:40:25.498Z,-1.00
2018-12-15T20:42:53.045Z,-1.00
2018-12-15T20:45:20.484Z,-0.90
2018-12-15T20:47:47.959Z,-1.00
2018-12-15T20:50:15.413Z,-1.00
2018-12-15T20:52:47.551Z,-1.00
2018-12-15T20:55:12.374Z,-0.90
2018-12-15T20:57:39.834Z,-0.90
2018-12-15T21:00:08.262Z,-0.90
2018-12-15T21:02:35.785Z,-0.90
2018-12-15T21:05:04.146Z,-0.90
2018-12-15T21:07:31.702Z,-0.60
2018-12-15T21:09:59.265Z,-0.90
2018-12-15T21:12:26.716Z,-1.00
2018-12-15T21:14:54.176Z,-0.90
2018-12-15T21:17:21.628Z,-0.90
2018-12-15T21:19:49.196Z,-0.80
2018-12-15T21:22:16.631Z,-0.90
2018-12-15T21:24:44.069Z,-0.90
2018-12-15T21:27:11.541Z,-0.90
2018-12-15T21:29:39.008Z,-0.90
2018-12-15T21:32:06.469Z,-0.90
2018-12-15T21:34:33.926Z,-0.90
2018-12-15T21:37:01.380Z,-0.90
2018-12-15T21:39:28.846Z,-0.90
2018-12-15T21:41:56.348Z,-0.90
2018-12-15T21:44:23.793Z,-0.90
2018-12-15T21:46:51.316Z,-0.90
2018-12-15T21:49:18.744Z,-0.90
2018-12-15T21:51:46.246Z,-1.00
2018-12-15T21:54:13.686Z,-0.90
2018-12-15T21:56:41.119Z,-0.90
2018-12-15T21:59:08.588Z,-0.90
2018-12-15T22:01:36.062Z,-0.90
2018-12-15T22:04:03.590Z,-0.90
2018-12-15T22:06:31.072Z,-0.90
2018-12-15T22:08:58.528Z,-0.90
2018-12-15T22:11:25.985Z,-0.90
2018-12-15T22:13:53.433Z,-0.90
2018-12-15T22:16:20.879Z,-1.00
2018-12-15T22:18:48.895Z,-1.00
2018-12-15T22:21:16.410Z,-0.90
2018-12-15T22:23:43.875Z,-0.90
2018-12-15T22:26:11.339Z,-0.90
2018-12-15T22:28:38.893Z,-1.00
2018-12-15T22:31:06.329Z,-0.90
2018-12-15T22:33:33.800Z,-0.90
2018-12-15T22:36:02.534Z,-0.90
2018-12-15T22:38:30.144Z,-0.90
2018-12-15T22:40:57.598Z,-0.90
2018-12-15T22:43:25.165Z,-0.90
2018-12-15T22:45:52.609Z,-0.90
2018-12-15T22:48:20.072Z,-0.90
2018-12-15T22:50:47.523Z,-0.90
2018-12-15T22:53:14.990Z,-1.00
2018-12-15T22:55:42.440Z,-0.90
2018-12-15T22:58:09.881Z,-0.90
2018-12-15T23:00:43.650Z,-1.00
2018-12-15T23:03:11.167Z,-1.00
2018-12-15T23:05:38.621Z,-1.00
2018-12-15T23:08:06.181Z,-1.00
2018-12-15T23:10:33.632Z,-1.00
2018-12-15T23:13:01.072Z,-1.00
2018-12-15T23:15:28.515Z,-0.90
2018-12-15T23:17:55.976Z,-1.00
2018-12-15T23:20:23.561Z,-1.00
2018-12-15T23:22:51.017Z,-1.00
2018-12-15T23:25:18.576Z,-1.00
2018-12-15T23:27:46.035Z,-1.00
2018-12-15T23:30:13.545Z,-1.00
2018-12-15T23:32:41.024Z,-1.00
2018-12-15T23:35:08.603Z,-1.00
2018-12-15T23:37:36.056Z,-1.10
2018-12-15T23:40:04.641Z,-1.10
2018-12-15T23:42:32.200Z,-1.10
2018-12-15T23:44:59.645Z,-1.10
2018-12-15T23:47:27.117Z,-1.20
2018-12-15T23:49:54.583Z,-1.10
2018-12-15T23:52:23.460Z,-1.10
2018-12-15T23:54:51.125Z,-1.20
2018-12-15T23:57:18.558Z,-1.10
2018-12-15T23:59:46.084Z,-1.10
